sensor_id;sensor_type;location;lat;lon;timestamp;temperature;humidity
64817;DHT22;53289;45.602;11.904;2023-03-08T00:02:00;5.30;80.40
64817;DHT22;53289;45.602;11.904;2023-03-08T00:04:25;5.30;79.30
64817;DHT22;53289;45.602;11.904;2023-03-08T00:06:51;5.30;80.00
64817;DHT22;53289;45.602;11.904;2023-03-08T00:09:17;5.20;79.70
64817;DHT22;53289;45.602;11.904;2023-03-08T00:11:43;5.20;79.00
64817;DHT22;53289;45.602;11.904;2023-03-08T00:14:09;5.20;78.60
64817;DHT22;53289;45.602;11.904;2023-03-08T00:16:35;5.20;78.60
64817;DHT22;53289;45.602;11.904;2023-03-08T00:19:01;5.10;79.10
64817;DHT22;53289;45.602;11.904;2023-03-08T00:21:27;5.10;78.80
64817;DHT22;53289;45.602;11.904;2023-03-08T00:23:53;5.10;78.40
64817;DHT22;53289;45.602;11.904;2023-03-08T00:26:19;5.00;78.10
64817;DHT22;53289;45.602;11.904;2023-03-08T00:28:45;4.90;78.40
64817;DHT22;53289;45.602;11.904;2023-03-08T00:31:12;4.90;78.40
64817;DHT22;53289;45.602;11.904;2023-03-08T00:33:39;4.80;78.50
64817;DHT22;53289;45.602;11.904;2023-03-08T00:36:12;4.80;78.40
64817;DHT22;53289;45.602;11.904;2023-03-08T00:38:38;4.70;78.40
64817;DHT22;53289;45.602;11.904;2023-03-08T00:41:04;4.60;78.40
64817;DHT22;53289;45.602;11.904;2023-03-08T00:43:30;4.60;78.40
64817;DHT22;53289;45.602;11.904;2023-03-08T00:45:57;4.40;78.50
64817;DHT22;53289;45.602;11.904;2023-03-08T00:48:23;4.40;79.40
64817;DHT22;53289;45.602;11.904;2023-03-08T00:50:49;4.40;79.10
64817;DHT22;53289;45.602;11.904;2023-03-08T00:53:15;4.30;78.90
64817;DHT22;53289;45.602;11.904;2023-03-08T00:55:49;4.30;79.30
64817;DHT22;53289;45.602;11.904;2023-03-08T00:58:15;4.30;79.10
64817;DHT22;53289;45.602;11.904;2023-03-08T01:00:41;4.40;79.40
64817;DHT22;53289;45.602;11.904;2023-03-08T01:03:07;4.30;79.70
64817;DHT22;53289;45.602;11.904;2023-03-08T01:05:41;4.30;79.80
64817;DHT22;53289;45.602;11.904;2023-03-08T01:08:07;4.20;79.40
64817;DHT22;53289;45.602;11.904;2023-03-08T01:10:34;4.20;79.50
64817;DHT22;53289;45.602;11.904;2023-03-08T01:13:00;4.10;79.40
64817;DHT22;53289;45.602;11.904;2023-03-08T01:15:26;4.10;79.20
64817;DHT22;53289;45.602;11.904;2023-03-08T01:17:52;4.10;79.40
64817;DHT22;53289;45.602;11.904;2023-03-08T01:20:18;4.00;79.60
64817;DHT22;53289;45.602;11.904;2023-03-08T01:22:44;4.00;79.70
64817;DHT22;53289;45.602;11.904;2023-03-08T01:25:10;3.90;79.60
64817;DHT22;53289;45.602;11.904;2023-03-08T01:27:36;3.90;79.60
64817;DHT22;53289;45.602;11.904;2023-03-08T01:30:01;3.90;79.20
64817;DHT22;53289;45.602;11.904;2023-03-08T01:32:28;3.90;79.50
64817;DHT22;53289;45.602;11.904;2023-03-08T01:34:54;3.90;79.30
64817;DHT22;53289;45.602;11.904;2023-03-08T01:37:21;3.90;79.20
64817;DHT22;53289;45.602;11.904;2023-03-08T01:39:46;3.90;79.30
64817;DHT22;53289;45.602;11.904;2023-03-08T01:42:12;3.80;79.20
64817;DHT22;53289;45.602;11.904;2023-03-08T01:47:55;3.70;79.20
64817;DHT22;53289;45.602;11.904;2023-03-08T01:50:21;3.60;79.30
64817;DHT22;53289;45.602;11.904;2023-03-08T01:52:52;3.70;79.30
64817;DHT22;53289;45.602;11.904;2023-03-08T01:55:20;3.90;80.20
64817;DHT22;53289;45.602;11.904;2023-03-08T01:57:50;3.90;80.20
64817;DHT22;53289;45.602;11.904;2023-03-08T02:00:20;3.80;80.00
64817;DHT22;53289;45.602;11.904;2023-03-08T02:05:21;3.60;79.90
64817;DHT22;53289;45.602;11.904;2023-03-08T02:07:47;3.70;80.10
64817;DHT22;53289;45.602;11.904;2023-03-08T02:10:13;3.60;80.10
64817;DHT22;53289;45.602;11.904;2023-03-08T02:12:40;3.70;80.60
64817;DHT22;53289;45.602;11.904;2023-03-08T02:15:08;3.80;81.00
64817;DHT22;53289;45.602;11.904;2023-03-08T02:17:37;3.80;81.10
64817;DHT22;53289;45.602;11.904;2023-03-08T02:22:51;3.80;81.00
64817;DHT22;53289;45.602;11.904;2023-03-08T02:25:20;3.70;80.90
64817;DHT22;53289;45.602;11.904;2023-03-08T02:27:47;3.60;80.70
64817;DHT22;53289;45.602;11.904;2023-03-08T02:30:16;3.50;80.70
64817;DHT22;53289;45.602;11.904;2023-03-08T02:32:42;3.40;80.60
64817;DHT22;53289;45.602;11.904;2023-03-08T02:35:09;3.40;80.70
64817;DHT22;53289;45.602;11.904;2023-03-08T02:37:34;3.20;80.70
64817;DHT22;53289;45.602;11.904;2023-03-08T02:40:00;3.10;80.80
64817;DHT22;53289;45.602;11.904;2023-03-08T02:42:26;3.10;80.90
64817;DHT22;53289;45.602;11.904;2023-03-08T02:44:52;3.00;81.10
64817;DHT22;53289;45.602;11.904;2023-03-08T02:47:19;2.90;81.10
64817;DHT22;53289;45.602;11.904;2023-03-08T02:49:44;2.90;81.10
64817;DHT22;53289;45.602;11.904;2023-03-08T02:52:10;2.90;81.10
64817;DHT22;53289;45.602;11.904;2023-03-08T02:54:36;2.90;81.20
64817;DHT22;53289;45.602;11.904;2023-03-08T02:57:02;2.90;81.30
64817;DHT22;53289;45.602;11.904;2023-03-08T02:59:28;2.90;81.40
64817;DHT22;53289;45.602;11.904;2023-03-08T03:01:55;2.90;81.50
64817;DHT22;53289;45.602;11.904;2023-03-08T03:04:22;2.90;81.50
64817;DHT22;53289;45.602;11.904;2023-03-08T03:06:48;2.90;81.50
64817;DHT22;53289;45.602;11.904;2023-03-08T03:09:14;2.90;81.40
64817;DHT22;53289;45.602;11.904;2023-03-08T03:11:40;2.90;81.40
64817;DHT22;53289;45.602;11.904;2023-03-08T03:14:06;2.90;81.50
64817;DHT22;53289;45.602;11.904;2023-03-08T03:16:32;2.90;81.50
64817;DHT22;53289;45.602;11.904;2023-03-08T03:18:58;2.90;81.60
64817;DHT22;53289;45.602;11.904;2023-03-08T03:21:28;2.80;81.80
64817;DHT22;53289;45.602;11.904;2023-03-08T03:23:54;2.70;81.60
64817;DHT22;53289;45.602;11.904;2023-03-08T03:26:21;2.60;81.60
64817;DHT22;53289;45.602;11.904;2023-03-08T03:28:48;2.50;81.50
64817;DHT22;53289;45.602;11.904;2023-03-08T03:31:20;2.40;81.40
64817;DHT22;53289;45.602;11.904;2023-03-08T03:33:46;2.30;81.40
64817;DHT22;53289;45.602;11.904;2023-03-08T03:36:15;2.30;81.50
64817;DHT22;53289;45.602;11.904;2023-03-08T03:38:42;2.20;81.50
64817;DHT22;53289;45.602;11.904;2023-03-08T03:41:10;2.20;81.50
64817;DHT22;53289;45.602;11.904;2023-03-08T03:43:37;2.20;81.60
64817;DHT22;53289;45.602;11.904;2023-03-08T03:46:06;2.10;81.60
64817;DHT22;53289;45.602;11.904;2023-03-08T03:48:34;2.10;81.60
64817;DHT22;53289;45.602;11.904;2023-03-08T03:51:03;2.10;81.60
64817;DHT22;53289;45.602;11.904;2023-03-08T03:53:33;2.00;81.60
64817;DHT22;53289;45.602;11.904;2023-03-08T03:56:11;2.00;81.60
64817;DHT22;53289;45.602;11.904;2023-03-08T03:58:37;1.90;81.50
64817;DHT22;53289;45.602;11.904;2023-03-08T04:01:22;1.90;81.60
64817;DHT22;53289;45.602;11.904;2023-03-08T04:03:52;1.90;81.70
64817;DHT22;53289;45.602;11.904;2023-03-08T04:06:23;1.90;81.80
64817;DHT22;53289;45.602;11.904;2023-03-08T04:08:54;1.90;81.90
64817;DHT22;53289;45.602;11.904;2023-03-08T04:11:23;1.90;81.90
64817;DHT22;53289;45.602;11.904;2023-03-08T04:13:49;1.80;81.80
64817;DHT22;53289;45.602;11.904;2023-03-08T04:16:20;1.80;81.80
64817;DHT22;53289;45.602;11.904;2023-03-08T04:18:47;1.80;81.80
64817;DHT22;53289;45.602;11.904;2023-03-08T04:21:13;1.80;81.80
64817;DHT22;53289;45.602;11.904;2023-03-08T04:23:39;1.80;81.80
64817;DHT22;53289;45.602;11.904;2023-03-08T04:26:06;1.90;81.80
64817;DHT22;53289;45.602;11.904;2023-03-08T04:28:32;1.90;81.90
64817;DHT22;53289;45.602;11.904;2023-03-08T04:30:59;1.80;81.80
64817;DHT22;53289;45.602;11.904;2023-03-08T04:33:25;1.80;81.60
64817;DHT22;53289;45.602;11.904;2023-03-08T04:35:51;1.80;81.70
64817;DHT22;53289;45.602;11.904;2023-03-08T04:38:18;1.80;81.60
64817;DHT22;53289;45.602;11.904;2023-03-08T04:40:51;1.80;81.50
64817;DHT22;53289;45.602;11.904;2023-03-08T04:43:35;1.80;81.50
64817;DHT22;53289;45.602;11.904;2023-03-08T04:46:02;1.80;81.70
64817;DHT22;53289;45.602;11.904;2023-03-08T04:48:29;1.80;81.50
64817;DHT22;53289;45.602;11.904;2023-03-08T04:50:57;1.80;81.50
64817;DHT22;53289;45.602;11.904;2023-03-08T04:53:24;1.70;81.40
64817;DHT22;53289;45.602;11.904;2023-03-08T04:55:51;1.80;81.50
64817;DHT22;53289;45.602;11.904;2023-03-08T04:58:17;1.80;81.70
64817;DHT22;53289;45.602;11.904;2023-03-08T05:00:44;1.80;81.60
64817;DHT22;53289;45.602;11.904;2023-03-08T05:03:10;1.80;81.50
64817;DHT22;53289;45.602;11.904;2023-03-08T05:05:37;1.70;81.40
64817;DHT22;53289;45.602;11.904;2023-03-08T05:08:03;1.70;81.30
64817;DHT22;53289;45.602;11.904;2023-03-08T05:10:33;1.70;81.30
64817;DHT22;53289;45.602;11.904;2023-03-08T05:12:59;1.70;81.50
64817;DHT22;53289;45.602;11.904;2023-03-08T05:15:25;1.70;81.50
64817;DHT22;53289;45.602;11.904;2023-03-08T05:17:51;1.70;81.60
64817;DHT22;53289;45.602;11.904;2023-03-08T05:20:17;1.70;81.40
64817;DHT22;53289;45.602;11.904;2023-03-08T05:22:43;1.70;81.20
64817;DHT22;53289;45.602;11.904;2023-03-08T05:25:10;1.70;81.10
64817;DHT22;53289;45.602;11.904;2023-03-08T05:27:36;1.70;81.20
64817;DHT22;53289;45.602;11.904;2023-03-08T05:30:05;1.70;81.20
64817;DHT22;53289;45.602;11.904;2023-03-08T05:32:31;1.70;81.20
64817;DHT22;53289;45.602;11.904;2023-03-08T05:34:57;1.60;81.10
64817;DHT22;53289;45.602;11.904;2023-03-08T05:37:23;1.60;81.20
64817;DHT22;53289;45.602;11.904;2023-03-08T05:39:51;1.60;81.30
64817;DHT22;53289;45.602;11.904;2023-03-08T05:42:17;1.60;81.20
64817;DHT22;53289;45.602;11.904;2023-03-08T05:44:45;1.60;81.00
64817;DHT22;53289;45.602;11.904;2023-03-08T05:47:11;1.70;80.80
64817;DHT22;53289;45.602;11.904;2023-03-08T05:49:37;1.80;81.20
64817;DHT22;53289;45.602;11.904;2023-03-08T05:52:03;1.80;81.30
64817;DHT22;53289;45.602;11.904;2023-03-08T05:54:29;1.90;81.40
64817;DHT22;53289;45.602;11.904;2023-03-08T05:56:55;1.90;81.50
64817;DHT22;53289;45.602;11.904;2023-03-08T05:59:21;1.90;81.60
64817;DHT22;53289;45.602;11.904;2023-03-08T06:01:47;2.00;81.70
64817;DHT22;53289;45.602;11.904;2023-03-08T06:04:13;2.10;81.80
64817;DHT22;53289;45.602;11.904;2023-03-08T06:06:41;2.20;82.00
64817;DHT22;53289;45.602;11.904;2023-03-08T06:09:07;2.20;81.80
64817;DHT22;53289;45.602;11.904;2023-03-08T06:11:33;2.30;81.40
64817;DHT22;53289;45.602;11.904;2023-03-08T06:13:59;2.40;81.10
64817;DHT22;53289;45.602;11.904;2023-03-08T06:16:25;2.40;81.20
64817;DHT22;53289;45.602;11.904;2023-03-08T06:18:50;2.40;81.20
64817;DHT22;53289;45.602;11.904;2023-03-08T06:21:18;2.40;81.00
64817;DHT22;53289;45.602;11.904;2023-03-08T06:23:46;2.50;80.90
64817;DHT22;53289;45.602;11.904;2023-03-08T06:26:12;2.50;80.70
64817;DHT22;53289;45.602;11.904;2023-03-08T06:28:38;2.60;81.00
64817;DHT22;53289;45.602;11.904;2023-03-08T06:31:09;2.60;80.60
64817;DHT22;53289;45.602;11.904;2023-03-08T06:33:36;2.80;80.80
64817;DHT22;53289;45.602;11.904;2023-03-08T06:36:17;2.90;80.90
64817;DHT22;53289;45.602;11.904;2023-03-08T06:38:43;2.90;81.20
64817;DHT22;53289;45.602;11.904;2023-03-08T06:41:10;3.00;81.20
64817;DHT22;53289;45.602;11.904;2023-03-08T06:43:37;3.10;80.90
64817;DHT22;53289;45.602;11.904;2023-03-08T06:46:14;3.20;81.30
64817;DHT22;53289;45.602;11.904;2023-03-08T06:48:41;3.40;81.20
64817;DHT22;53289;45.602;11.904;2023-03-08T06:51:07;3.50;81.10
64817;DHT22;53289;45.602;11.904;2023-03-08T06:53:34;3.70;81.10
64817;DHT22;53289;45.602;11.904;2023-03-08T06:56:07;3.90;80.80
64817;DHT22;53289;45.602;11.904;2023-03-08T06:58:34;3.90;80.30
64817;DHT22;53289;45.602;11.904;2023-03-08T07:01:00;3.90;80.20
64817;DHT22;53289;45.602;11.904;2023-03-08T07:03:29;4.00;80.30
64817;DHT22;53289;45.602;11.904;2023-03-08T07:06:06;4.10;80.60
64817;DHT22;53289;45.602;11.904;2023-03-08T07:08:33;4.30;80.50
64817;DHT22;53289;45.602;11.904;2023-03-08T07:11:00;4.60;80.90
64817;DHT22;53289;45.602;11.904;2023-03-08T07:13:26;4.90;80.50
64817;DHT22;53289;45.602;11.904;2023-03-08T07:15:53;5.10;80.40
64817;DHT22;53289;45.602;11.904;2023-03-08T07:18:19;5.40;80.60
64817;DHT22;53289;45.602;11.904;2023-03-08T07:20:50;5.50;80.40
64817;DHT22;53289;45.602;11.904;2023-03-08T07:23:15;5.70;80.20
64817;DHT22;53289;45.602;11.904;2023-03-08T07:25:41;5.90;79.80
64817;DHT22;53289;45.602;11.904;2023-03-08T07:28:07;6.00;79.80
64817;DHT22;53289;45.602;11.904;2023-03-08T07:30:33;6.20;79.90
64817;DHT22;53289;45.602;11.904;2023-03-08T07:32:58;6.40;79.70
64817;DHT22;53289;45.602;11.904;2023-03-08T07:35:24;6.50;79.30
64817;DHT22;53289;45.602;11.904;2023-03-08T07:37:50;6.60;79.40
64817;DHT22;53289;45.602;11.904;2023-03-08T07:40:16;6.70;79.20
64817;DHT22;53289;45.602;11.904;2023-03-08T07:42:43;6.90;79.10
64817;DHT22;53289;45.602;11.904;2023-03-08T07:45:10;7.00;79.10
64817;DHT22;53289;45.602;11.904;2023-03-08T07:47:37;7.10;79.10
64817;DHT22;53289;45.602;11.904;2023-03-08T07:50:03;7.20;78.80
64817;DHT22;53289;45.602;11.904;2023-03-08T07:52:29;7.40;78.20
64817;DHT22;53289;45.602;11.904;2023-03-08T07:54:55;7.40;78.00
64817;DHT22;53289;45.602;11.904;2023-03-08T07:57:22;7.40;78.00
64817;DHT22;53289;45.602;11.904;2023-03-08T07:59:49;7.50;78.20
64817;DHT22;53289;45.602;11.904;2023-03-08T08:02:16;7.60;78.20
64817;DHT22;53289;45.602;11.904;2023-03-08T08:04:42;7.70;78.40
64817;DHT22;53289;45.602;11.904;2023-03-08T08:07:13;7.90;78.00
64817;DHT22;53289;45.602;11.904;2023-03-08T08:09:39;8.00;78.30
64817;DHT22;53289;45.602;11.904;2023-03-08T08:12:05;8.20;78.00
64817;DHT22;53289;45.602;11.904;2023-03-08T08:14:31;8.40;78.40
64817;DHT22;53289;45.602;11.904;2023-03-08T08:16:58;8.60;78.20
64817;DHT22;53289;45.602;11.904;2023-03-08T08:19:24;8.90;77.50
64817;DHT22;53289;45.602;11.904;2023-03-08T08:21:50;9.20;77.40
64817;DHT22;53289;45.602;11.904;2023-03-08T08:24:16;9.40;77.50
64817;DHT22;53289;45.602;11.904;2023-03-08T08:26:42;9.70;77.10
64817;DHT22;53289;45.602;11.904;2023-03-08T08:29:07;9.90;77.00
64817;DHT22;53289;45.602;11.904;2023-03-08T08:31:33;10.30;76.40
64817;DHT22;53289;45.602;11.904;2023-03-08T08:33:59;10.50;75.80
64817;DHT22;53289;45.602;11.904;2023-03-08T08:36:26;10.80;75.50
64817;DHT22;53289;45.602;11.904;2023-03-08T08:38:52;11.10;75.40
64817;DHT22;53289;45.602;11.904;2023-03-08T08:41:20;11.30;74.90
64817;DHT22;53289;45.602;11.904;2023-03-08T08:43:47;11.50;73.70
64817;DHT22;53289;45.602;11.904;2023-03-08T08:46:13;11.70;72.70
64817;DHT22;53289;45.602;11.904;2023-03-08T08:48:40;11.90;72.40
64817;DHT22;53289;45.602;11.904;2023-03-08T08:51:08;11.90;72.40
64817;DHT22;53289;45.602;11.904;2023-03-08T08:53:34;12.00;71.70
64817;DHT22;53289;45.602;11.904;2023-03-08T08:56:30;12.20;72.40
64817;DHT22;53289;45.602;11.904;2023-03-08T08:58:59;12.40;71.50
64817;DHT22;53289;45.602;11.904;2023-03-08T09:01:28;12.60;70.90
64817;DHT22;53289;45.602;11.904;2023-03-08T09:03:54;12.70;71.10
64817;DHT22;53289;45.602;11.904;2023-03-08T09:06:22;12.90;70.40
64817;DHT22;53289;45.602;11.904;2023-03-08T09:08:49;13.20;70.20
64817;DHT22;53289;45.602;11.904;2023-03-08T09:11:15;13.40;69.20
64817;DHT22;53289;45.602;11.904;2023-03-08T09:13:41;13.60;69.40
64817;DHT22;53289;45.602;11.904;2023-03-08T09:16:27;13.90;68.00
64817;DHT22;53289;45.602;11.904;2023-03-08T09:18:54;14.20;67.30
64817;DHT22;53289;45.602;11.904;2023-03-08T09:21:24;14.40;66.50
64817;DHT22;53289;45.602;11.904;2023-03-08T09:23:50;14.60;66.10
64817;DHT22;53289;45.602;11.904;2023-03-08T09:26:17;14.80;65.90
64817;DHT22;53289;45.602;11.904;2023-03-08T09:28:43;14.90;65.20
64817;DHT22;53289;45.602;11.904;2023-03-08T09:31:11;15.10;65.10
64817;DHT22;53289;45.602;11.904;2023-03-08T09:33:45;15.40;64.10
64817;DHT22;53289;45.602;11.904;2023-03-08T09:36:11;15.60;63.20
64817;DHT22;53289;45.602;11.904;2023-03-08T09:38:38;15.70;62.20
64817;DHT22;53289;45.602;11.904;2023-03-08T09:46:47;15.70;62.20
64817;DHT22;53289;45.602;11.904;2023-03-08T09:49:30;15.90;62.00
64817;DHT22;53289;45.602;11.904;2023-03-08T09:54:38;16.20;58.70
64817;DHT22;53289;45.602;11.904;2023-03-08T09:57:12;16.30;60.50
64817;DHT22;53289;45.602;11.904;2023-03-08T10:00:00;16.50;59.90
64817;DHT22;53289;45.602;11.904;2023-03-08T10:02:37;16.60;59.40
64817;DHT22;53289;45.602;11.904;2023-03-08T10:08:16;17.10;55.30
64817;DHT22;53289;45.602;11.904;2023-03-08T10:13:33;17.40;56.50
64817;DHT22;53289;45.602;11.904;2023-03-08T10:18:57;17.50;56.30
64817;DHT22;53289;45.602;11.904;2023-03-08T10:21:25;17.60;56.20
64817;DHT22;53289;45.602;11.904;2023-03-08T10:24:01;17.90;56.30
64817;DHT22;53289;45.602;11.904;2023-03-08T10:26:29;18.00;56.20
64817;DHT22;53289;45.602;11.904;2023-03-08T10:28:55;18.10;53.70
64817;DHT22;53289;45.602;11.904;2023-03-08T10:31:27;18.20;53.80
64817;DHT22;53289;45.602;11.904;2023-03-08T10:34:09;18.20;54.10
64817;DHT22;53289;45.602;11.904;2023-03-08T10:36:47;18.10;52.80
64817;DHT22;53289;45.602;11.904;2023-03-08T10:39:13;17.90;53.40
64817;DHT22;53289;45.602;11.904;2023-03-08T10:41:49;18.00;54.50
64817;DHT22;53289;45.602;11.904;2023-03-08T10:49:48;18.30;53.40
64817;DHT22;53289;45.602;11.904;2023-03-08T10:52:26;18.00;52.10
64817;DHT22;53289;45.602;11.904;2023-03-08T11:00:00;17.20;55.00
64817;DHT22;53289;45.602;11.904;2023-03-08T11:02:27;17.20;55.60
64817;DHT22;53289;45.602;11.904;2023-03-08T11:04:58;17.40;55.50
64817;DHT22;53289;45.602;11.904;2023-03-08T11:07:32;17.50;52.90
64817;DHT22;53289;45.602;11.904;2023-03-08T11:10:16;17.70;53.70
64817;DHT22;53289;45.602;11.904;2023-03-08T11:12:43;17.80;53.60
64817;DHT22;53289;45.602;11.904;2023-03-08T11:15:17;17.90;53.90
64817;DHT22;53289;45.602;11.904;2023-03-08T11:17:54;18.00;53.40
64817;DHT22;53289;45.602;11.904;2023-03-08T11:20:30;18.40;52.20
64817;DHT22;53289;45.602;11.904;2023-03-08T11:31:24;19.40;49.10
64817;DHT22;53289;45.602;11.904;2023-03-08T11:34:35;19.80;49.50
64817;DHT22;53289;45.602;11.904;2023-03-08T11:37:14;20.10;49.80
64817;DHT22;53289;45.602;11.904;2023-03-08T11:53:15;21.00;44.90
64817;DHT22;53289;45.602;11.904;2023-03-08T11:58:27;21.40;45.10
64817;DHT22;53289;45.602;11.904;2023-03-08T12:01:08;21.50;44.60
64817;DHT22;53289;45.602;11.904;2023-03-08T12:03:39;21.60;41.90
64817;DHT22;53289;45.602;11.904;2023-03-08T12:06:28;21.80;44.40
64817;DHT22;53289;45.602;11.904;2023-03-08T12:09:00;21.90;43.90
64817;DHT22;53289;45.602;11.904;2023-03-08T12:11:32;22.10;42.30
64817;DHT22;53289;45.602;11.904;2023-03-08T12:14:15;22.40;39.10
64817;DHT22;53289;45.602;11.904;2023-03-08T12:16:53;22.50;39.80
64817;DHT22;53289;45.602;11.904;2023-03-08T12:22:20;22.60;40.00
64817;DHT22;53289;45.602;11.904;2023-03-08T12:25:03;22.80;40.20
64817;DHT22;53289;45.602;11.904;2023-03-08T12:30:34;22.80;39.60
64817;DHT22;53289;45.602;11.904;2023-03-08T12:33:05;22.30;40.50
64817;DHT22;53289;45.602;11.904;2023-03-08T12:35:36;22.00;41.10
64817;DHT22;53289;45.602;11.904;2023-03-08T12:40:51;21.50;42.30
64817;DHT22;53289;45.602;11.904;2023-03-08T12:46:07;21.60;41.30
64817;DHT22;53289;45.602;11.904;2023-03-08T12:48:38;21.80;40.70
64817;DHT22;53289;45.602;11.904;2023-03-08T12:58:45;22.40;38.90
64817;DHT22;53289;45.602;11.904;2023-03-08T13:01:57;22.50;38.50
64817;DHT22;53289;45.602;11.904;2023-03-08T13:04:33;22.70;38.20
64817;DHT22;53289;45.602;11.904;2023-03-08T13:14:43;22.00;40.40
64817;DHT22;53289;45.602;11.904;2023-03-08T13:20:03;22.40;39.00
64817;DHT22;53289;45.602;11.904;2023-03-08T13:26:00;23.10;38.00
64817;DHT22;53289;45.602;11.904;2023-03-08T13:28:35;23.30;38.00
64817;DHT22;53289;45.602;11.904;2023-03-08T13:31:03;23.40;37.70
64817;DHT22;53289;45.602;11.904;2023-03-08T13:33:41;23.40;37.60
64817;DHT22;53289;45.602;11.904;2023-03-08T13:36:21;23.10;37.70
64817;DHT22;53289;45.602;11.904;2023-03-08T13:39:06;22.70;38.80
64817;DHT22;53289;45.602;11.904;2023-03-08T13:44:03;22.40;39.60
64817;DHT22;53289;45.602;11.904;2023-03-08T13:46:30;22.30;40.20
64817;DHT22;53289;45.602;11.904;2023-03-08T13:48:56;22.20;40.50
64817;DHT22;53289;45.602;11.904;2023-03-08T13:51:24;22.40;39.20
64817;DHT22;53289;45.602;11.904;2023-03-08T13:53:51;22.70;38.30
64817;DHT22;53289;45.602;11.904;2023-03-08T13:56:26;22.90;38.70
64817;DHT22;53289;45.602;11.904;2023-03-08T13:58:54;23.20;38.20
64817;DHT22;53289;45.602;11.904;2023-03-08T14:01:24;23.50;36.80
64817;DHT22;53289;45.602;11.904;2023-03-08T14:03:52;23.70;36.80
64817;DHT22;53289;45.602;11.904;2023-03-08T14:06:25;23.80;37.00
64817;DHT22;53289;45.602;11.904;2023-03-08T14:08:54;24.00;35.80
64817;DHT22;53289;45.602;11.904;2023-03-08T14:11:30;24.00;35.30
64817;DHT22;53289;45.602;11.904;2023-03-08T14:13:59;24.00;35.40
64817;DHT22;53289;45.602;11.904;2023-03-08T14:16:32;23.80;35.60
64817;DHT22;53289;45.602;11.904;2023-03-08T14:19:17;23.60;36.00
64817;DHT22;53289;45.602;11.904;2023-03-08T14:22:22;23.40;36.60
64817;DHT22;53289;45.602;11.904;2023-03-08T14:24:42;23.20;36.80
64817;DHT22;53289;45.602;11.904;2023-03-08T14:29:41;23.00;37.00
64817;DHT22;53289;45.602;11.904;2023-03-08T14:37:06;22.20;38.90
64817;DHT22;53289;45.602;11.904;2023-03-08T14:39:40;22.00;39.30
64817;DHT22;53289;45.602;11.904;2023-03-08T14:42:25;21.90;39.50
64817;DHT22;53289;45.602;11.904;2023-03-08T14:44:57;21.80;39.30
64817;DHT22;53289;45.602;11.904;2023-03-08T14:47:29;21.70;39.60
64817;DHT22;53289;45.602;11.904;2023-03-08T14:52:35;21.20;40.00
64817;DHT22;53289;45.602;11.904;2023-03-08T14:55:22;21.10;40.60
64817;DHT22;53289;45.602;11.904;2023-03-08T14:57:52;20.90;40.50
64817;DHT22;53289;45.602;11.904;2023-03-08T15:00:20;20.60;41.20
64817;DHT22;53289;45.602;11.904;2023-03-08T15:02:46;20.50;41.70
64817;DHT22;53289;45.602;11.904;2023-03-08T15:05:14;20.40;41.70
64817;DHT22;53289;45.602;11.904;2023-03-08T15:07:41;20.40;41.40
64817;DHT22;53289;45.602;11.904;2023-03-08T15:10:25;20.20;41.90
64817;DHT22;53289;45.602;11.904;2023-03-08T15:12:52;20.10;42.10
64817;DHT22;53289;45.602;11.904;2023-03-08T15:15:18;20.00;42.60
64817;DHT22;53289;45.602;11.904;2023-03-08T15:17:44;20.10;42.40
64817;DHT22;53289;45.602;11.904;2023-03-08T15:20:11;19.90;43.00
64817;DHT22;53289;45.602;11.904;2023-03-08T15:22:50;19.80;43.20
64817;DHT22;53289;45.602;11.904;2023-03-08T15:25:28;19.60;43.60
64817;DHT22;53289;45.602;11.904;2023-03-08T15:27:55;19.40;44.30
64817;DHT22;53289;45.602;11.904;2023-03-08T15:30:23;19.40;44.40
64817;DHT22;53289;45.602;11.904;2023-03-08T15:32:50;19.30;44.90
64817;DHT22;53289;45.602;11.904;2023-03-08T15:35:16;19.30;44.90
64817;DHT22;53289;45.602;11.904;2023-03-08T15:37:42;19.20;45.20
64817;DHT22;53289;45.602;11.904;2023-03-08T15:40:20;19.10;46.00
64817;DHT22;53289;45.602;11.904;2023-03-08T15:42:46;18.90;46.40
64817;DHT22;53289;45.602;11.904;2023-03-08T15:45:13;18.80;46.80
64817;DHT22;53289;45.602;11.904;2023-03-08T15:47:41;18.50;47.70
64817;DHT22;53289;45.602;11.904;2023-03-08T15:50:16;18.30;48.50
64817;DHT22;53289;45.602;11.904;2023-03-08T15:52:43;18.10;49.30
64817;DHT22;53289;45.602;11.904;2023-03-08T15:55:14;17.90;49.70
64817;DHT22;53289;45.602;11.904;2023-03-08T15:57:40;17.70;50.30
64817;DHT22;53289;45.602;11.904;2023-03-08T16:00:09;17.60;50.70
64817;DHT22;53289;45.602;11.904;2023-03-08T16:02:36;17.40;51.10
64817;DHT22;53289;45.602;11.904;2023-03-08T16:05:04;17.20;52.00
64817;DHT22;53289;45.602;11.904;2023-03-08T16:07:30;17.40;51.40
64817;DHT22;53289;45.602;11.904;2023-03-08T16:09:56;17.10;51.40
64817;DHT22;53289;45.602;11.904;2023-03-08T16:12:22;17.00;51.00
64817;DHT22;53289;45.602;11.904;2023-03-08T16:14:49;16.70;51.70
64817;DHT22;53289;45.602;11.904;2023-03-08T16:17:16;16.40;52.50
64817;DHT22;53289;45.602;11.904;2023-03-08T16:19:43;16.30;53.10
64817;DHT22;53289;45.602;11.904;2023-03-08T16:22:09;16.20;53.40
64817;DHT22;53289;45.602;11.904;2023-03-08T16:24:35;16.10;53.80
64817;DHT22;53289;45.602;11.904;2023-03-08T16:27:01;16.00;53.50
64817;DHT22;53289;45.602;11.904;2023-03-08T16:29:30;15.90;54.00
64817;DHT22;53289;45.602;11.904;2023-03-08T16:31:56;15.60;54.50
64817;DHT22;53289;45.602;11.904;2023-03-08T16:34:26;15.60;54.90
64817;DHT22;53289;45.602;11.904;2023-03-08T16:36:53;15.40;55.30
64817;DHT22;53289;45.602;11.904;2023-03-08T16:39:20;15.40;55.50
64817;DHT22;53289;45.602;11.904;2023-03-08T16:41:46;15.20;55.60
64817;DHT22;53289;45.602;11.904;2023-03-08T16:44:20;15.10;55.80
64817;DHT22;53289;45.602;11.904;2023-03-08T16:46:47;15.00;56.20
64817;DHT22;53289;45.602;11.904;2023-03-08T16:49:14;14.80;57.00
64817;DHT22;53289;45.602;11.904;2023-03-08T16:51:41;14.70;56.80
64817;DHT22;53289;45.602;11.904;2023-03-08T16:54:09;14.60;57.00
64817;DHT22;53289;45.602;11.904;2023-03-08T16:56:36;14.50;57.20
64817;DHT22;53289;45.602;11.904;2023-03-08T16:59:02;14.30;57.50
64817;DHT22;53289;45.602;11.904;2023-03-08T17:01:28;14.10;58.70
64817;DHT22;53289;45.602;11.904;2023-03-08T17:03:55;13.90;58.60
64817;DHT22;53289;45.602;11.904;2023-03-08T17:06:23;13.80;58.70
64817;DHT22;53289;45.602;11.904;2023-03-08T17:08:49;13.60;59.00
64817;DHT22;53289;45.602;11.904;2023-03-08T17:11:27;13.40;59.10
64817;DHT22;53289;45.602;11.904;2023-03-08T17:14:02;13.30;59.40
64817;DHT22;53289;45.602;11.904;2023-03-08T17:16:30;13.10;59.60
64817;DHT22;53289;45.602;11.904;2023-03-08T17:18:58;12.90;59.90
64817;DHT22;53289;45.602;11.904;2023-03-08T17:21:24;12.70;60.10
64817;DHT22;53289;45.602;11.904;2023-03-08T17:23:51;12.60;60.30